Terminal Aerodrome Forecast
Issued by NWS

Home | Current Version | Previous Version | Text Only | Print | Product List | Glossary On
Versions: 1 2 3 4 5 6 7 8 9 10 11 12 13 14 15 16 17
000
FTUS42 KMLB 191406 AAA
TAFLEE
TAF AMD
KLEE 191406Z 1914/2012 01008KT P6SM BKN005
     FM191500 03010KT P6SM FEW008 SCT030 SCT060
     FM191800 04012KT P6SM SCT040 BKN100
     FM200000 04007KT P6SM FEW040 SCT250=

USA.gov is the U.S. government's official web portal to all federal, state and local government web resources and services.